sensor_id;sensor_type;location;lat;lon;timestamp;P1;durP1;ratioP1;P2;durP2;ratioP2
36443;SDS011;24692;45.642;13.806;2022-09-03T00:00:11;3.37;;;2.47;;
36443;SDS011;24692;45.642;13.806;2022-09-03T00:05:13;2.60;;;2.40;;
36443;SDS011;24692;45.642;13.806;2022-09-03T00:10:41;4.23;;;2.73;;
36443;SDS011;24692;45.642;13.806;2022-09-03T00:13:08;2.30;;;2.10;;
36443;SDS011;24692;45.642;13.806;2022-09-03T00:15:48;2.77;;;2.57;;
36443;SDS011;24692;45.642;13.806;2022-09-03T00:18:22;3.00;;;2.63;;
36443;SDS011;24692;45.642;13.806;2022-09-03T00:20:57;4.73;;;2.40;;
36443;SDS011;24692;45.642;13.806;2022-09-03T00:23:32;4.97;;;2.70;;
36443;SDS011;24692;45.642;13.806;2022-09-03T00:28:58;3.37;;;2.50;;
36443;SDS011;24692;45.642;13.806;2022-09-03T00:31:32;3.17;;;2.50;;
36443;SDS011;24692;45.642;13.806;2022-09-03T00:34:08;3.63;;;2.57;;
36443;SDS011;24692;45.642;13.806;2022-09-03T00:36:47;3.10;;;2.50;;
36443;SDS011;24692;45.642;13.806;2022-09-03T00:39:21;3.10;;;2.37;;
36443;SDS011;24692;45.642;13.806;2022-09-03T00:52:49;2.70;;;2.40;;
36443;SDS011;24692;45.642;13.806;2022-09-03T00:55:36;3.30;;;2.60;;
36443;SDS011;24692;45.642;13.806;2022-09-03T00:58:10;3.20;;;2.30;;
36443;SDS011;24692;45.642;13.806;2022-09-03T01:00:42;3.17;;;2.30;;
36443;SDS011;24692;45.642;13.806;2022-09-03T01:03:10;3.30;;;2.60;;
36443;SDS011;24692;45.642;13.806;2022-09-03T01:14:42;3.20;;;2.30;;
36443;SDS011;24692;45.642;13.806;2022-09-03T01:17:55;3.93;;;2.40;;
36443;SDS011;24692;45.642;13.806;2022-09-03T01:30:54;3.27;;;2.40;;
36443;SDS011;24692;45.642;13.806;2022-09-03T01:33:43;2.67;;;2.37;;
36443;SDS011;24692;45.642;13.806;2022-09-03T01:39:01;2.50;;;2.30;;
36443;SDS011;24692;45.642;13.806;2022-09-03T01:49:58;2.30;;;2.10;;
36443;SDS011;24692;45.642;13.806;2022-09-03T01:52:33;2.30;;;2.07;;
36443;SDS011;24692;45.642;13.806;2022-09-03T02:00:44;2.40;;;2.20;;
36443;SDS011;24692;45.642;13.806;2022-09-03T02:03:21;2.57;;;2.33;;
36443;SDS011;24692;45.642;13.806;2022-09-03T02:05:48;2.53;;;2.13;;
36443;SDS011;24692;45.642;13.806;2022-09-03T02:08:17;4.07;;;2.20;;
36443;SDS011;24692;45.642;13.806;2022-09-03T02:13:35;2.40;;;2.20;;
36443;SDS011;24692;45.642;13.806;2022-09-03T02:16:02;3.03;;;2.60;;
36443;SDS011;24692;45.642;13.806;2022-09-03T02:18:39;3.90;;;2.57;;
36443;SDS011;24692;45.642;13.806;2022-09-03T02:21:09;2.50;;;2.23;;
36443;SDS011;24692;45.642;13.806;2022-09-03T02:23:39;3.03;;;2.50;;
36443;SDS011;24692;45.642;13.806;2022-09-03T02:26:06;3.47;;;2.50;;
36443;SDS011;24692;45.642;13.806;2022-09-03T02:28:35;5.23;;;2.30;;
36443;SDS011;24692;45.642;13.806;2022-09-03T02:31:01;2.80;;;2.43;;
36443;SDS011;24692;45.642;13.806;2022-09-03T02:33:28;3.07;;;2.33;;
36443;SDS011;24692;45.642;13.806;2022-09-03T02:35:56;3.27;;;2.50;;
36443;SDS011;24692;45.642;13.806;2022-09-03T02:38:22;3.70;;;2.17;;
36443;SDS011;24692;45.642;13.806;2022-09-03T02:40:49;3.37;;;2.17;;
36443;SDS011;24692;45.642;13.806;2022-09-03T02:45:52;2.87;;;2.60;;
36443;SDS011;24692;45.642;13.806;2022-09-03T02:48:23;2.87;;;2.67;;
36443;SDS011;24692;45.642;13.806;2022-09-03T02:50:49;2.77;;;2.47;;
36443;SDS011;24692;45.642;13.806;2022-09-03T02:53:15;3.57;;;2.40;;
36443;SDS011;24692;45.642;13.806;2022-09-03T02:55:41;4.07;;;2.77;;
36443;SDS011;24692;45.642;13.806;2022-09-03T02:58:07;2.63;;;2.43;;
36443;SDS011;24692;45.642;13.806;2022-09-03T03:00:36;3.27;;;2.50;;
36443;SDS011;24692;45.642;13.806;2022-09-03T03:03:02;2.57;;;2.33;;
36443;SDS011;24692;45.642;13.806;2022-09-03T03:05:39;2.80;;;2.60;;
36443;SDS011;24692;45.642;13.806;2022-09-03T03:08:12;2.57;;;2.37;;
36443;SDS011;24692;45.642;13.806;2022-09-03T03:10:43;5.37;;;2.40;;
36443;SDS011;24692;45.642;13.806;2022-09-03T03:13:10;3.50;;;2.63;;
36443;SDS011;24692;45.642;13.806;2022-09-03T03:15:36;3.93;;;2.80;;
36443;SDS011;24692;45.642;13.806;2022-09-03T03:18:01;3.77;;;2.50;;
36443;SDS011;24692;45.642;13.806;2022-09-03T03:20:27;6.37;;;3.00;;
36443;SDS011;24692;45.642;13.806;2022-09-03T03:22:54;3.90;;;2.60;;
36443;SDS011;24692;45.642;13.806;2022-09-03T03:25:19;3.77;;;2.53;;
36443;SDS011;24692;45.642;13.806;2022-09-03T03:27:45;3.30;;;2.23;;
36443;SDS011;24692;45.642;13.806;2022-09-03T03:30:11;2.47;;;2.27;;
36443;SDS011;24692;45.642;13.806;2022-09-03T03:32:37;3.57;;;2.60;;
36443;SDS011;24692;45.642;13.806;2022-09-03T03:35:04;2.63;;;2.43;;
36443;SDS011;24692;45.642;13.806;2022-09-03T03:37:31;2.57;;;2.30;;
36443;SDS011;24692;45.642;13.806;2022-09-03T03:39:57;3.30;;;2.30;;
36443;SDS011;24692;45.642;13.806;2022-09-03T03:42:23;2.80;;;2.43;;
36443;SDS011;24692;45.642;13.806;2022-09-03T03:44:49;3.07;;;2.60;;
36443;SDS011;24692;45.642;13.806;2022-09-03T03:47:15;2.87;;;2.40;;
36443;SDS011;24692;45.642;13.806;2022-09-03T03:49:43;3.87;;;2.47;;
36443;SDS011;24692;45.642;13.806;2022-09-03T03:52:09;2.97;;;2.50;;
36443;SDS011;24692;45.642;13.806;2022-09-03T03:54:34;4.83;;;2.50;;
36443;SDS011;24692;45.642;13.806;2022-09-03T03:57:00;3.20;;;2.27;;
36443;SDS011;24692;45.642;13.806;2022-09-03T03:59:26;4.23;;;2.60;;
36443;SDS011;24692;45.642;13.806;2022-09-03T04:01:54;2.33;;;2.13;;
36443;SDS011;24692;45.642;13.806;2022-09-03T04:04:20;4.60;;;2.40;;
36443;SDS011;24692;45.642;13.806;2022-09-03T04:06:46;3.60;;;2.53;;
36443;SDS011;24692;45.642;13.806;2022-09-03T04:09:12;2.67;;;2.40;;
36443;SDS011;24692;45.642;13.806;2022-09-03T04:11:37;4.03;;;2.20;;
36443;SDS011;24692;45.642;13.806;2022-09-03T04:14:03;2.23;;;2.03;;
36443;SDS011;24692;45.642;13.806;2022-09-03T04:16:29;2.93;;;2.30;;
36443;SDS011;24692;45.642;13.806;2022-09-03T04:18:56;2.57;;;2.13;;
36443;SDS011;24692;45.642;13.806;2022-09-03T04:21:27;2.47;;;2.27;;
36443;SDS011;24692;45.642;13.806;2022-09-03T04:23:54;2.87;;;2.20;;
36443;SDS011;24692;45.642;13.806;2022-09-03T04:26:24;3.07;;;2.10;;
36443;SDS011;24692;45.642;13.806;2022-09-03T04:28:52;2.63;;;2.10;;
36443;SDS011;24692;45.642;13.806;2022-09-03T04:31:18;4.40;;;2.20;;
36443;SDS011;24692;45.642;13.806;2022-09-03T04:33:45;2.30;;;2.10;;
36443;SDS011;24692;45.642;13.806;2022-09-03T04:36:11;2.33;;;2.10;;
36443;SDS011;24692;45.642;13.806;2022-09-03T04:38:43;3.77;;;2.17;;
36443;SDS011;24692;45.642;13.806;2022-09-03T04:41:11;2.30;;;2.10;;
36443;SDS011;24692;45.642;13.806;2022-09-03T04:43:42;4.83;;;2.10;;
36443;SDS011;24692;45.642;13.806;2022-09-03T04:46:09;4.00;;;1.87;;
36443;SDS011;24692;45.642;13.806;2022-09-03T04:48:36;4.53;;;2.40;;
36443;SDS011;24692;45.642;13.806;2022-09-03T04:51:03;4.00;;;2.17;;
36443;SDS011;24692;45.642;13.806;2022-09-03T04:53:31;3.63;;;2.30;;
36443;SDS011;24692;45.642;13.806;2022-09-03T04:55:59;2.30;;;2.10;;
36443;SDS011;24692;45.642;13.806;2022-09-03T04:58:24;2.40;;;2.10;;
36443;SDS011;24692;45.642;13.806;2022-09-03T05:00:50;2.10;;;1.87;;
36443;SDS011;24692;45.642;13.806;2022-09-03T05:03:17;2.40;;;2.20;;
36443;SDS011;24692;45.642;13.806;2022-09-03T05:05:50;4.27;;;2.20;;
36443;SDS011;24692;45.642;13.806;2022-09-03T05:08:17;2.20;;;2.00;;
36443;SDS011;24692;45.642;13.806;2022-09-03T05:10:42;2.97;;;2.00;;
36443;SDS011;24692;45.642;13.806;2022-09-03T05:13:08;3.57;;;2.20;;
36443;SDS011;24692;45.642;13.806;2022-09-03T05:15:33;3.30;;;2.20;;
36443;SDS011;24692;45.642;13.806;2022-09-03T05:18:00;4.43;;;2.10;;
36443;SDS011;24692;45.642;13.806;2022-09-03T05:20:27;2.80;;;2.00;;
36443;SDS011;24692;45.642;13.806;2022-09-03T05:22:54;3.17;;;2.40;;
36443;SDS011;24692;45.642;13.806;2022-09-03T05:25:21;2.67;;;2.20;;
36443;SDS011;24692;45.642;13.806;2022-09-03T05:27:47;2.40;;;2.20;;
36443;SDS011;24692;45.642;13.806;2022-09-03T05:30:13;2.67;;;2.40;;
36443;SDS011;24692;45.642;13.806;2022-09-03T05:32:39;5.60;;;2.50;;
36443;SDS011;24692;45.642;13.806;2022-09-03T05:35:06;3.80;;;2.37;;
36443;SDS011;24692;45.642;13.806;2022-09-03T05:37:33;4.13;;;2.53;;
36443;SDS011;24692;45.642;13.806;2022-09-03T05:39:58;2.50;;;2.30;;
36443;SDS011;24692;45.642;13.806;2022-09-03T05:42:24;2.83;;;2.27;;
36443;SDS011;24692;45.642;13.806;2022-09-03T05:44:52;2.70;;;2.17;;
36443;SDS011;24692;45.642;13.806;2022-09-03T05:47:18;2.83;;;2.47;;
36443;SDS011;24692;45.642;13.806;2022-09-03T05:49:44;2.60;;;2.20;;
36443;SDS011;24692;45.642;13.806;2022-09-03T05:52:10;3.77;;;2.37;;
36443;SDS011;24692;45.642;13.806;2022-09-03T05:54:35;2.50;;;2.30;;
36443;SDS011;24692;45.642;13.806;2022-09-03T05:57:01;2.30;;;2.10;;
36443;SDS011;24692;45.642;13.806;2022-09-03T05:59:27;3.00;;;2.20;;
36443;SDS011;24692;45.642;13.806;2022-09-03T06:01:52;2.20;;;2.10;;
36443;SDS011;24692;45.642;13.806;2022-09-03T06:04:18;4.37;;;2.27;;
36443;SDS011;24692;45.642;13.806;2022-09-03T06:06:45;3.23;;;2.10;;
36443;SDS011;24692;45.642;13.806;2022-09-03T06:09:12;4.13;;;2.03;;
36443;SDS011;24692;45.642;13.806;2022-09-03T06:11:40;2.40;;;2.00;;
36443;SDS011;24692;45.642;13.806;2022-09-03T06:14:07;3.07;;;2.30;;
36443;SDS011;24692;45.642;13.806;2022-09-03T06:16:34;4.10;;;2.43;;
36443;SDS011;24692;45.642;13.806;2022-09-03T06:19:02;2.47;;;2.10;;
36443;SDS011;24692;45.642;13.806;2022-09-03T06:21:31;4.17;;;2.30;;
36443;SDS011;24692;45.642;13.806;2022-09-03T06:23:57;2.13;;;1.90;;
36443;SDS011;24692;45.642;13.806;2022-09-03T06:26:23;4.00;;;2.13;;
36443;SDS011;24692;45.642;13.806;2022-09-03T06:28:49;2.80;;;2.10;;
36443;SDS011;24692;45.642;13.806;2022-09-03T06:31:16;2.70;;;2.00;;
36443;SDS011;24692;45.642;13.806;2022-09-03T06:33:43;2.40;;;2.10;;
36443;SDS011;24692;45.642;13.806;2022-09-03T06:36:12;2.58;;;2.00;;
36443;SDS011;24692;45.642;13.806;2022-09-03T06:38:39;3.25;;;2.10;;
36443;SDS011;24692;45.642;13.806;2022-09-03T06:41:06;2.33;;;1.98;;
36443;SDS011;24692;45.642;13.806;2022-09-03T06:43:35;6.25;;;1.98;;
36443;SDS011;24692;45.642;13.806;2022-09-03T06:48:30;2.50;;;1.67;;
36443;SDS011;24692;45.642;13.806;2022-09-03T06:51:00;2.20;;;2.00;;
36443;SDS011;24692;45.642;13.806;2022-09-03T06:53:31;3.33;;;1.73;;
36443;SDS011;24692;45.642;13.806;2022-09-03T06:55:59;4.35;;;1.80;;
36443;SDS011;24692;45.642;13.806;2022-09-03T06:58:37;2.67;;;1.92;;
36443;SDS011;24692;45.642;13.806;2022-09-03T07:03:34;2.65;;;1.90;;
36443;SDS011;24692;45.642;13.806;2022-09-03T07:06:05;2.08;;;1.80;;
36443;SDS011;24692;45.642;13.806;2022-09-03T07:08:33;2.92;;;1.92;;
36443;SDS011;24692;45.642;13.806;2022-09-03T07:10:59;2.05;;;1.80;;
36443;SDS011;24692;45.642;13.806;2022-09-03T07:13:29;2.10;;;1.90;;
36443;SDS011;24692;45.642;13.806;2022-09-03T07:16:01;2.05;;;1.90;;
36443;SDS011;24692;45.642;13.806;2022-09-03T07:18:29;2.28;;;2.03;;
36443;SDS011;24692;45.642;13.806;2022-09-03T07:20:59;2.45;;;1.85;;
36443;SDS011;24692;45.642;13.806;2022-09-03T07:23:30;2.80;;;1.90;;
36443;SDS011;24692;45.642;13.806;2022-09-03T07:25:57;3.17;;;1.90;;
36443;SDS011;24692;45.642;13.806;2022-09-03T07:28:25;3.05;;;1.80;;
36443;SDS011;24692;45.642;13.806;2022-09-03T07:30:52;3.00;;;2.00;;
36443;SDS011;24692;45.642;13.806;2022-09-03T07:33:19;2.42;;;1.75;;
36443;SDS011;24692;45.642;13.806;2022-09-03T07:35:45;3.47;;;1.83;;
36443;SDS011;24692;45.642;13.806;2022-09-03T07:38:11;3.05;;;1.80;;
36443;SDS011;24692;45.642;13.806;2022-09-03T07:40:41;2.45;;;1.80;;
36443;SDS011;24692;45.642;13.806;2022-09-03T07:43:07;3.38;;;1.80;;
36443;SDS011;24692;45.642;13.806;2022-09-03T07:45:34;2.42;;;2.00;;
36443;SDS011;24692;45.642;13.806;2022-09-03T07:47:59;3.65;;;1.83;;
36443;SDS011;24692;45.642;13.806;2022-09-03T07:50:25;1.70;;;1.60;;
36443;SDS011;24692;45.642;13.806;2022-09-03T07:52:57;1.90;;;1.80;;
36443;SDS011;24692;45.642;13.806;2022-09-03T07:55:23;3.10;;;1.80;;
36443;SDS011;24692;45.642;13.806;2022-09-03T07:57:49;2.05;;;1.58;;
36443;SDS011;24692;45.642;13.806;2022-09-03T08:00:20;4.03;;;1.77;;
36443;SDS011;24692;45.642;13.806;2022-09-03T08:02:45;1.58;;;1.48;;
36443;SDS011;24692;45.642;13.806;2022-09-03T08:05:12;1.80;;;1.40;;
36443;SDS011;24692;45.642;13.806;2022-09-03T08:07:38;3.70;;;1.33;;
36443;SDS011;24692;45.642;13.806;2022-09-03T08:10:04;1.80;;;1.40;;
36443;SDS011;24692;45.642;13.806;2022-09-03T08:12:30;2.05;;;1.40;;
36443;SDS011;24692;45.642;13.806;2022-09-03T08:14:56;1.38;;;1.27;;
36443;SDS011;24692;45.642;13.806;2022-09-03T08:17:23;1.25;;;1.15;;
36443;SDS011;24692;45.642;13.806;2022-09-03T08:19:48;1.95;;;1.20;;
36443;SDS011;24692;45.642;13.806;2022-09-03T08:22:14;2.40;;;1.20;;
36443;SDS011;24692;45.642;13.806;2022-09-03T08:24:40;1.67;;;0.98;;
36443;SDS011;24692;45.642;13.806;2022-09-03T08:27:06;2.15;;;1.20;;
36443;SDS011;24692;45.642;13.806;2022-09-03T08:29:33;1.00;;;1.00;;
36443;SDS011;24692;45.642;13.806;2022-09-03T08:31:58;1.42;;;1.15;;
36443;SDS011;24692;45.642;13.806;2022-09-03T08:34:24;1.73;;;1.10;;
36443;SDS011;24692;45.642;13.806;2022-09-03T08:36:50;1.98;;;1.13;;
36443;SDS011;24692;45.642;13.806;2022-09-03T08:39:18;1.20;;;1.10;;
36443;SDS011;24692;45.642;13.806;2022-09-03T08:58:05;1.17;;;1.08;;
36443;SDS011;24692;45.642;13.806;2022-09-03T09:00:57;1.33;;;1.15;;
36443;SDS011;24692;45.642;13.806;2022-09-03T09:08:37;2.00;;;1.10;;
36443;SDS011;24692;45.642;13.806;2022-09-03T09:13:57;2.30;;;1.42;;
36443;SDS011;24692;45.642;13.806;2022-09-03T09:22:17;1.95;;;1.40;;
36443;SDS011;24692;45.642;13.806;2022-09-03T09:24:58;2.38;;;1.80;;
36443;SDS011;24692;45.642;13.806;2022-09-03T09:27:30;3.63;;;2.03;;
36443;SDS011;24692;45.642;13.806;2022-09-03T09:29:57;4.75;;;2.00;;
36443;SDS011;24692;45.642;13.806;2022-09-03T09:32:28;1.90;;;1.80;;
36443;SDS011;24692;45.642;13.806;2022-09-03T09:34:55;2.83;;;1.67;;
36443;SDS011;24692;45.642;13.806;2022-09-03T09:37:21;5.38;;;1.83;;
36443;SDS011;24692;45.642;13.806;2022-09-03T09:39:57;2.75;;;1.85;;
36443;SDS011;24692;45.642;13.806;2022-09-03T09:42:24;2.10;;;1.90;;
36443;SDS011;24692;45.642;13.806;2022-09-03T09:44:51;2.10;;;1.90;;
36443;SDS011;24692;45.642;13.806;2022-09-03T09:49:59;4.18;;;1.83;;
36443;SDS011;24692;45.642;13.806;2022-09-03T09:52:27;6.47;;;1.90;;
36443;SDS011;24692;45.642;13.806;2022-09-03T09:55:15;1.88;;;1.77;;
36443;SDS011;24692;45.642;13.806;2022-09-03T09:57:43;3.08;;;1.90;;
36443;SDS011;24692;45.642;13.806;2022-09-03T10:00:10;3.15;;;1.85;;
36443;SDS011;24692;45.642;13.806;2022-09-03T10:02:39;2.85;;;1.80;;
36443;SDS011;24692;45.642;13.806;2022-09-03T10:05:28;1.67;;;1.58;;
36443;SDS011;24692;45.642;13.806;2022-09-03T10:08:01;3.42;;;1.80;;
36443;SDS011;24692;45.642;13.806;2022-09-03T10:10:29;4.22;;;1.70;;
36443;SDS011;24692;45.642;13.806;2022-09-03T10:13:03;2.40;;;1.65;;
36443;SDS011;24692;45.642;13.806;2022-09-03T10:15:43;2.22;;;1.63;;
36443;SDS011;24692;45.642;13.806;2022-09-03T10:18:38;2.38;;;1.50;;
36443;SDS011;24692;45.642;13.806;2022-09-03T10:21:26;1.73;;;1.48;;
36443;SDS011;24692;45.642;13.806;2022-09-03T10:24:14;1.70;;;1.60;;
36443;SDS011;24692;45.642;13.806;2022-09-03T10:27:10;3.03;;;1.67;;
36443;SDS011;24692;45.642;13.806;2022-09-03T10:29:40;1.70;;;1.60;;
36443;SDS011;24692;45.642;13.806;2022-09-03T10:40:57;2.95;;;1.88;;
36443;SDS011;24692;45.642;13.806;2022-09-03T10:49:50;2.40;;;1.60;;
36443;SDS011;24692;45.642;13.806;2022-09-03T10:55:48;2.72;;;1.70;;
36443;SDS011;24692;45.642;13.806;2022-09-03T11:07:01;2.17;;;1.98;;
36443;SDS011;24692;45.642;13.806;2022-09-03T11:09:32;2.60;;;1.80;;
36443;SDS011;24692;45.642;13.806;2022-09-03T11:12:18;3.97;;;2.05;;
36443;SDS011;24692;45.642;13.806;2022-09-03T11:15:14;2.17;;;1.90;;
36443;SDS011;24692;45.642;13.806;2022-09-03T11:17:46;2.10;;;1.90;;
36443;SDS011;24692;45.642;13.806;2022-09-03T11:22:46;3.17;;;2.05;;
36443;SDS011;24692;45.642;13.806;2022-09-03T11:25:15;3.28;;;2.10;;
36443;SDS011;24692;45.642;13.806;2022-09-03T11:33:29;2.13;;;1.92;;
36443;SDS011;24692;45.642;13.806;2022-09-03T11:35:59;2.25;;;2.03;;
36443;SDS011;24692;45.642;13.806;2022-09-03T11:38:27;2.05;;;1.80;;
36443;SDS011;24692;45.642;13.806;2022-09-03T11:41:14;4.13;;;1.83;;
36443;SDS011;24692;45.642;13.806;2022-09-03T11:43:48;4.30;;;2.20;;
36443;SDS011;24692;45.642;13.806;2022-09-03T11:48:49;1.90;;;1.80;;
36443;SDS011;24692;45.642;13.806;2022-09-03T11:53:55;1.98;;;1.73;;
36443;SDS011;24692;45.642;13.806;2022-09-03T11:56:42;2.25;;;1.90;;
36443;SDS011;24692;45.642;13.806;2022-09-03T12:01:43;2.08;;;1.90;;
36443;SDS011;24692;45.642;13.806;2022-09-03T12:04:17;2.25;;;1.73;;
36443;SDS011;24692;45.642;13.806;2022-09-03T12:07:05;3.50;;;2.00;;
36443;SDS011;24692;45.642;13.806;2022-09-03T12:18:25;4.10;;;1.80;;
36443;SDS011;24692;45.642;13.806;2022-09-03T12:25:52;2.95;;;1.80;;
36443;SDS011;24692;45.642;13.806;2022-09-03T12:28:19;1.85;;;1.75;;
36443;SDS011;24692;45.642;13.806;2022-09-03T12:30:50;1.75;;;1.65;;
36443;SDS011;24692;45.642;13.806;2022-09-03T12:33:18;3.38;;;1.73;;
36443;SDS011;24692;45.642;13.806;2022-09-03T12:35:55;1.80;;;1.70;;
36443;SDS011;24692;45.642;13.806;2022-09-03T12:38:22;2.05;;;1.83;;
36443;SDS011;24692;45.642;13.806;2022-09-03T12:40:49;3.22;;;1.80;;
36443;SDS011;24692;45.642;13.806;2022-09-03T12:43:15;3.50;;;2.08;;
36443;SDS011;24692;45.642;13.806;2022-09-03T12:45:46;2.22;;;1.90;;
36443;SDS011;24692;45.642;13.806;2022-09-03T12:48:14;2.53;;;1.80;;
36443;SDS011;24692;45.642;13.806;2022-09-03T12:50:41;4.20;;;1.90;;
36443;SDS011;24692;45.642;13.806;2022-09-03T12:53:08;3.13;;;1.80;;
36443;SDS011;24692;45.642;13.806;2022-09-03T12:55:54;3.05;;;1.92;;
36443;SDS011;24692;45.642;13.806;2022-09-03T13:06:07;4.00;;;1.85;;
36443;SDS011;24692;45.642;13.806;2022-09-03T13:09:18;1.70;;;1.60;;
36443;SDS011;24692;45.642;13.806;2022-09-03T13:11:27;2.17;;;1.88;;
36443;SDS011;24692;45.642;13.806;2022-09-03T13:14:04;2.60;;;1.90;;
36443;SDS011;24692;45.642;13.806;2022-09-03T13:22:23;2.50;;;2.17;;
36443;SDS011;24692;45.642;13.806;2022-09-03T13:25:13;3.83;;;2.30;;
36443;SDS011;24692;45.642;13.806;2022-09-03T13:30:52;3.35;;;1.92;;
36443;SDS011;24692;45.642;13.806;2022-09-03T13:46:52;4.00;;;2.10;;
36443;SDS011;24692;45.642;13.806;2022-09-03T13:52:31;2.22;;;1.83;;
36443;SDS011;24692;45.642;13.806;2022-09-03T13:55:30;2.88;;;2.20;;
36443;SDS011;24692;45.642;13.806;2022-09-03T14:00:46;2.35;;;1.98;;
36443;SDS011;24692;45.642;13.806;2022-09-03T14:17:09;3.42;;;2.00;;
36443;SDS011;24692;45.642;13.806;2022-09-03T14:20:38;2.17;;;1.80;;
36443;SDS011;24692;45.642;13.806;2022-09-03T14:25:31;2.72;;;1.73;;
36443;SDS011;24692;45.642;13.806;2022-09-03T14:42:30;2.65;;;1.70;;
36443;SDS011;24692;45.642;13.806;2022-09-03T15:11:56;2.55;;;1.83;;
36443;SDS011;24692;45.642;13.806;2022-09-03T15:15:15;2.55;;;1.85;;
36443;SDS011;24692;45.642;13.806;2022-09-03T15:30:48;2.42;;;1.70;;
36443;SDS011;24692;45.642;13.806;2022-09-03T15:33:36;2.03;;;1.90;;
36443;SDS011;24692;45.642;13.806;2022-09-03T15:36:23;2.63;;;1.98;;
36443;SDS011;24692;45.642;13.806;2022-09-03T15:41:49;2.08;;;1.88;;
36443;SDS011;24692;45.642;13.806;2022-09-03T15:44:21;3.05;;;2.00;;
36443;SDS011;24692;45.642;13.806;2022-09-03T15:47:05;2.10;;;1.90;;
36443;SDS011;24692;45.642;13.806;2022-09-03T15:52:25;1.98;;;1.88;;
36443;SDS011;24692;45.642;13.806;2022-09-03T15:55:39;3.10;;;2.25;;
36443;SDS011;24692;45.642;13.806;2022-09-03T16:01:19;3.05;;;2.00;;
36443;SDS011;24692;45.642;13.806;2022-09-03T16:06:19;2.30;;;2.10;;
36443;SDS011;24692;45.642;13.806;2022-09-03T16:09:04;5.38;;;2.95;;
36443;SDS011;24692;45.642;13.806;2022-09-03T16:20:06;2.30;;;2.10;;
36443;SDS011;24692;45.642;13.806;2022-09-03T16:22:44;2.60;;;1.90;;
36443;SDS011;24692;45.642;13.806;2022-09-03T16:25:32;2.40;;;2.10;;
36443;SDS011;24692;45.642;13.806;2022-09-03T16:28:19;2.20;;;2.00;;
36443;SDS011;24692;45.642;13.806;2022-09-03T16:31:06;2.70;;;2.50;;
36443;SDS011;24692;45.642;13.806;2022-09-03T16:56:13;2.75;;;2.45;;
36443;SDS011;24692;45.642;13.806;2022-09-03T17:09:46;7.38;;;4.93;;
36443;SDS011;24692;45.642;13.806;2022-09-03T17:24:06;2.50;;;2.30;;
36443;SDS011;24692;45.642;13.806;2022-09-03T17:26:52;4.07;;;2.30;;
36443;SDS011;24692;45.642;13.806;2022-09-03T17:35:05;4.15;;;2.60;;
36443;SDS011;24692;45.642;13.806;2022-09-03T17:43:50;3.47;;;2.45;;
36443;SDS011;24692;45.642;13.806;2022-09-03T17:48:59;3.50;;;2.25;;
36443;SDS011;24692;45.642;13.806;2022-09-03T18:05:17;3.70;;;2.28;;
36443;SDS011;24692;45.642;13.806;2022-09-03T18:10:43;3.17;;;2.40;;
36443;SDS011;24692;45.642;13.806;2022-09-03T18:16:17;5.18;;;2.38;;
36443;SDS011;24692;45.642;13.806;2022-09-03T18:18:52;2.72;;;2.53;;
36443;SDS011;24692;45.642;13.806;2022-09-03T18:21:43;3.85;;;2.35;;
36443;SDS011;24692;45.642;13.806;2022-09-03T18:24:42;4.85;;;2.58;;
36443;SDS011;24692;45.642;13.806;2022-09-03T18:27:36;3.88;;;2.60;;
36443;SDS011;24692;45.642;13.806;2022-09-03T18:30:39;5.80;;;2.75;;
36443;SDS011;24692;45.642;13.806;2022-09-03T18:33:23;4.22;;;3.13;;
36443;SDS011;24692;45.642;13.806;2022-09-03T18:36:09;3.90;;;2.72;;
36443;SDS011;24692;45.642;13.806;2022-09-03T18:39:11;3.90;;;2.55;;
36443;SDS011;24692;45.642;13.806;2022-09-03T18:42:01;6.50;;;2.90;;
36443;SDS011;24692;45.642;13.806;2022-09-03T18:51:44;5.53;;;2.85;;
36443;SDS011;24692;45.642;13.806;2022-09-03T19:00:42;4.57;;;2.80;;
36443;SDS011;24692;45.642;13.806;2022-09-03T19:07:03;3.13;;;2.60;;
36443;SDS011;24692;45.642;13.806;2022-09-03T19:10:37;3.38;;;2.40;;
36443;SDS011;24692;45.642;13.806;2022-09-03T19:13:07;3.10;;;2.67;;
36443;SDS011;24692;45.642;13.806;2022-09-03T19:22:16;3.45;;;2.88;;
36443;SDS011;24692;45.642;13.806;2022-09-03T19:25:11;3.53;;;2.67;;
36443;SDS011;24692;45.642;13.806;2022-09-03T19:36:59;4.13;;;2.85;;
36443;SDS011;24692;45.642;13.806;2022-09-03T19:54:49;3.80;;;2.90;;
36443;SDS011;24692;45.642;13.806;2022-09-03T19:57:38;4.43;;;2.85;;
36443;SDS011;24692;45.642;13.806;2022-09-03T20:00:24;5.22;;;3.20;;
36443;SDS011;24692;45.642;13.806;2022-09-03T20:03:10;4.97;;;2.97;;
36443;SDS011;24692;45.642;13.806;2022-09-03T20:05:57;3.33;;;3.03;;
36443;SDS011;24692;45.642;13.806;2022-09-03T20:08:44;4.72;;;2.60;;
36443;SDS011;24692;45.642;13.806;2022-09-03T20:11:31;3.30;;;2.97;;
36443;SDS011;24692;45.642;13.806;2022-09-03T20:13:57;3.67;;;3.00;;
36443;SDS011;24692;45.642;13.806;2022-09-03T20:21:48;4.50;;;3.10;;
36443;SDS011;24692;45.642;13.806;2022-09-03T20:30:15;3.42;;;2.70;;
36443;SDS011;24692;45.642;13.806;2022-09-03T20:46:33;6.50;;;2.80;;
36443;SDS011;24692;45.642;13.806;2022-09-03T20:54:28;3.08;;;2.35;;
36443;SDS011;24692;45.642;13.806;2022-09-03T21:02:20;2.95;;;2.70;;
36443;SDS011;24692;45.642;13.806;2022-09-03T21:13:20;5.70;;;3.00;;
36443;SDS011;24692;45.642;13.806;2022-09-03T21:15:54;3.50;;;2.67;;
36443;SDS011;24692;45.642;13.806;2022-09-03T21:24:25;3.60;;;2.60;;
36443;SDS011;24692;45.642;13.806;2022-09-03T21:27:00;2.53;;;2.33;;
36443;SDS011;24692;45.642;13.806;2022-09-03T21:29:31;3.13;;;2.70;;
36443;SDS011;24692;45.642;13.806;2022-09-03T21:32:09;3.80;;;2.45;;
36443;SDS011;24692;45.642;13.806;2022-09-03T21:34:42;3.88;;;2.80;;
36443;SDS011;24692;45.642;13.806;2022-09-03T21:37:27;3.67;;;2.40;;
36443;SDS011;24692;45.642;13.806;2022-09-03T21:39:58;2.53;;;2.33;;
36443;SDS011;24692;45.642;13.806;2022-09-03T21:42:43;3.63;;;2.17;;
36443;SDS011;24692;45.642;13.806;2022-09-03T21:45:21;3.42;;;2.60;;
36443;SDS011;24692;45.642;13.806;2022-09-03T21:48:05;4.57;;;2.50;;
36443;SDS011;24692;45.642;13.806;2022-09-03T21:50:59;4.47;;;2.38;;
36443;SDS011;24692;45.642;13.806;2022-09-03T21:53:26;3.50;;;2.47;;
36443;SDS011;24692;45.642;13.806;2022-09-03T22:01:28;2.83;;;2.40;;
36443;SDS011;24692;45.642;13.806;2022-09-03T22:03:54;3.90;;;2.13;;
36443;SDS011;24692;45.642;13.806;2022-09-03T22:06:21;2.10;;;2.00;;
36443;SDS011;24692;45.642;13.806;2022-09-03T22:09:02;3.72;;;2.28;;
36443;SDS011;24692;45.642;13.806;2022-09-03T22:11:42;2.60;;;2.17;;
36443;SDS011;24692;45.642;13.806;2022-09-03T22:14:19;2.70;;;2.22;;
36443;SDS011;24692;45.642;13.806;2022-09-03T22:19:20;2.22;;;2.00;;
36443;SDS011;24692;45.642;13.806;2022-09-03T22:21:50;3.78;;;2.20;;
36443;SDS011;24692;45.642;13.806;2022-09-03T22:51:13;2.05;;;1.90;;
36443;SDS011;24692;45.642;13.806;2022-09-03T22:56:33;2.20;;;2.00;;
36443;SDS011;24692;45.642;13.806;2022-09-03T23:10:31;4.07;;;2.10;;
36443;SDS011;24692;45.642;13.806;2022-09-03T23:15:35;3.93;;;2.10;;
36443;SDS011;24692;45.642;13.806;2022-09-03T23:18:13;1.98;;;1.88;;
36443;SDS011;24692;45.642;13.806;2022-09-03T23:20:45;1.90;;;1.80;;
36443;SDS011;24692;45.642;13.806;2022-09-03T23:23:20;3.07;;;1.97;;
36443;SDS011;24692;45.642;13.806;2022-09-03T23:26:02;2.20;;;1.92;;
36443;SDS011;24692;45.642;13.806;2022-09-03T23:28:37;2.17;;;2.00;;
36443;SDS011;24692;45.642;13.806;2022-09-03T23:33:39;3.17;;;2.30;;
36443;SDS011;24692;45.642;13.806;2022-09-03T23:36:14;2.57;;;2.10;;
36443;SDS011;24692;45.642;13.806;2022-09-03T23:39:05;2.13;;;1.93;;